Graz, Austria
Current Conditions -  °F | °C
As of 8:50 PM on Sunday 23 Nov 2014 (Local Time) from LOWG Reporting Station
Haze Haze  
Wind Chill: 35°   Ceiling: 900
Heat Index: 39°   Visibility: 2.8mi
Dew Point: 39°   Wind: 6mph
Humidity: 100%   Direction: 160°SSE
Pressure: 30.36"   Gusts: NA
Location:  47.08°N, 15.42°E
Report Text: LOWG 231850Z 16005KT 4500 BR OVC009 04/04 Q1028 NOSIG
Loading
Personal Weather Stations






























Interactive Weather Map New forecast layout! Learn more

10-Day Weather Forecast

Advertisements
Track Severe Weather on mobile